Time;durP1;ratioP1;P1;durP2;ratioP2;P2;SDS_P1;SDS_P2;PMS_P1;PMS_P2;Temp;Humidity;BMP_temperature;BMP_pressure;BME280_temperature;BME280_humidity;BME280_pressure;Samples;Min_cycle;Max_cycle;Signal;HPM_P1;HPM_P2
2023/02/01 00:02:10;;;;;;;1.20;1.00;;;;;;;4.72;100.00;99395.78;6184881;23;20647;-78
2023/02/01 00:04:37;;;;;;;1.20;0.90;;;;;;;4.74;100.00;99391.13;6184877;23;20229;-79
2023/02/01 00:07:04;;;;;;;1.10;0.90;;;;;;;4.66;100.00;99388.59;6187408;23;20202;-79
2023/02/01 00:09:30;;;;;;;0.80;0.80;;;;;;;4.60;100.00;99399.94;6187328;23;20192;-79
2023/02/01 00:11:59;;;;;;;1.07;0.90;;;;;;;4.75;100.00;99386.63;6185936;23;20186;-80
2023/02/01 00:14:25;;;;;;;1.00;1.00;;;;;;;4.72;100.00;99382.50;6187646;23;20197;-79
2023/02/01 00:16:52;;;;;;;1.53;1.23;;;;;;;4.76;100.00;99391.72;6162009;23;20210;-79
2023/02/01 00:19:19;;;;;;;1.67;1.20;;;;;;;4.74;100.00;99359.28;6186227;23;20230;-79
2023/02/01 00:21:45;;;;;;;1.20;1.10;;;;;;;4.69;100.00;99358.19;6186389;23;20722;-80
2023/02/01 00:24:12;;;;;;;1.90;1.53;;;;;;;4.74;100.00;99332.72;6163312;23;20233;-79
2023/02/01 00:26:41;;;;;;;1.80;1.13;;;;;;;4.60;100.00;99340.75;6163605;23;20205;-80
2023/02/01 00:29:16;;;;;;;1.60;1.10;;;;;;;4.72;100.00;99334.72;6191273;23;20190;-80
2023/02/01 00:31:43;;;;;;;1.33;1.10;;;;;;;4.81;100.00;99315.03;6190215;23;20202;-80
2023/02/01 00:34:13;;;;;;;1.40;1.30;;;;;;;4.82;100.00;99316.66;6163685;23;20232;-79
2023/02/01 00:36:40;;;;;;;1.93;1.30;;;;;;;4.85;100.00;99329.56;6163586;23;20202;-80
2023/02/01 00:39:07;;;;;;;1.70;1.33;;;;;;;4.72;100.00;99313.50;6139267;23;20205;-80
2023/02/01 00:41:34;;;;;;;2.20;1.40;;;;;;;4.78;100.00;99318.06;6190674;23;20296;-80
2023/02/01 00:44:01;;;;;;;1.40;1.30;;;;;;;4.69;100.00;99316.53;6188051;23;20220;-78
2023/02/01 00:46:29;;;;;;;2.40;1.40;;;;;;;4.75;100.00;99317.63;6189610;23;20202;-79
2023/02/01 00:48:56;;;;;;;1.60;1.40;;;;;;;4.77;100.00;99336.81;6146173;23;20214;-80
2023/02/01 00:51:25;;;;;;;1.43;1.33;;;;;;;4.80;100.00;99342.59;6150960;23;20285;-80
2023/02/01 00:53:52;;;;;;;2.10;1.63;;;;;;;4.89;100.00;99340.63;6139684;23;20560;-80
2023/02/01 00:56:19;;;;;;;1.70;1.60;;;;;;;4.87;100.00;99314.25;6140270;23;20555;-79
2023/02/01 00:58:46;;;;;;;3.27;1.57;;;;;;;4.81;100.00;99315.03;6191613;23;20254;-79
2023/02/01 01:01:17;;;;;;;1.63;1.50;;;;;;;4.84;100.00;99327.94;6191268;23;20277;-80
2023/02/01 01:03:46;;;;;;;1.70;1.60;;;;;;;4.85;100.00;99312.84;6191267;23;20202;-80
2023/02/01 01:06:14;;;;;;;1.60;1.50;;;;;;;4.92;100.00;99318.19;6165502;23;20210;-79
2023/02/01 01:08:42;;;;;;;1.63;1.50;;;;;;;4.97;100.00;99321.09;6141999;23;20261;-80
2023/02/01 01:11:11;;;;;;;1.80;1.70;;;;;;;4.89;100.00;99295.50;6166376;23;20233;-80
2023/02/01 01:13:38;;;;;;;2.00;1.60;;;;;;;4.98;100.00;99282.91;6118002;23;20214;-80
2023/02/01 01:16:07;;;;;;;2.40;1.70;;;;;;;4.97;100.00;99307.81;6141177;23;20410;-80
2023/02/01 01:18:34;;;;;;;2.10;1.30;;;;;;;4.98;100.00;99304.16;6143555;23;20209;-79
2023/02/01 01:21:02;;;;;;;1.70;1.30;;;;;;;4.92;100.00;99310.22;6194207;23;20206;-80
2023/02/01 01:23:28;;;;;;;1.63;1.50;;;;;;;5.04;100.00;99314.81;6167750;23;20218;-80
2023/02/01 01:25:55;;;;;;;2.33;1.50;;;;;;;5.00;100.00;99288.84;6167857;23;20206;-80
2023/02/01 01:28:22;;;;;;;1.37;1.27;;;;;;;5.04;100.00;99290.13;6142503;23;20213;-79
2023/02/01 01:30:48;;;;;;;1.40;1.17;;;;;;;5.06;100.00;99306.66;6167775;23;20206;-80
2023/02/01 01:33:15;;;;;;;1.43;1.20;;;;;;;5.14;100.00;99330.41;6166748;23;20218;-80
2023/02/01 01:35:42;;;;;;;1.57;1.17;;;;;;;5.22;100.00;99325.00;6141752;23;20232;-80
2023/02/01 01:38:10;;;;;;;1.57;1.20;;;;;;;5.12;100.00;99314.69;6166047;23;20221;-80
2023/02/01 01:40:37;;;;;;;1.13;1.03;;;;;;;5.03;100.00;99313.19;6167554;23;20285;-80
2023/02/01 01:43:12;;;;;;;1.27;1.17;;;;;;;5.01;100.00;99293.97;6145060;23;20237;-80
2023/02/01 01:45:38;;;;;;;1.67;1.10;;;;;;;4.98;100.00;99286.38;6164718;23;20236;-79
2023/02/01 01:48:21;;;;;;;1.10;1.00;;;;;;;4.97;100.00;99305.97;6190710;23;20206;-78
2023/02/01 01:50:52;;;;;;;1.57;1.10;;;;;;;4.95;100.00;99305.34;6162730;23;20202;-78
2023/02/01 01:53:27;;;;;;;2.20;1.10;;;;;;;4.92;100.00;99291.63;6186018;23;20264;-78
2023/02/01 01:55:54;;;;;;;1.10;1.00;;;;;;;4.83;100.00;99320.16;6160597;23;20702;-78
2023/02/01 01:58:26;;;;;;;1.20;1.10;;;;;;;4.86;100.00;99294.03;6185849;23;20213;-78
2023/02/01 02:00:53;;;;;;;1.90;1.00;;;;;;;4.88;100.00;99328.38;6160076;23;20216;-78
2023/02/01 02:03:23;;;;;;;1.57;0.90;;;;;;;4.82;100.00;99318.50;6186556;23;20268;-79
2023/02/01 02:05:52;;;;;;;1.20;1.10;;;;;;;4.78;100.00;99335.81;6160141;23;20264;-78
2023/02/01 02:08:20;;;;;;;0.67;0.67;;;;;;;4.83;100.00;99333.41;6185888;23;20536;-78
2023/02/01 02:11:00;;;;;;;1.10;1.00;;;;;;;4.74;100.00;99332.72;6158877;23;20442;-78
2023/02/01 02:13:37;;;;;;;0.90;0.90;;;;;;;4.73;100.00;99324.94;6138124;23;20260;-78
2023/02/01 02:16:38;;;;;;;1.03;0.93;;;;;;;4.78;100.00;99334.00;6160260;23;20213;-79
2023/02/01 02:19:23;;;;;;;0.97;0.80;;;;;;;4.81;100.00;99322.16;6186503;23;20210;-78
2023/02/01 02:22:09;;;;;;;1.30;0.70;;;;;;;4.86;100.00;99362.22;6185857;23;20297;-79
2023/02/01 02:25:13;;;;;;;1.40;0.90;;;;;;;4.76;100.00;99335.16;6184141;23;20396;-78
2023/02/01 02:27:59;;;;;;;0.80;0.80;;;;;;;4.82;100.00;99329.94;6190724;23;20218;-80
2023/02/01 02:30:32;;;;;;;1.47;0.90;;;;;;;4.75;100.00;99371.53;6191095;23;20205;-79
2023/02/01 02:33:43;;;;;;;1.07;0.80;;;;;;;4.83;100.00;99326.28;6188567;23;20296;-79
2023/02/01 02:36:16;;;;;;;1.00;0.90;;;;;;;4.74;100.00;99332.72;6168048;23;20205;-80
2023/02/01 02:38:58;;;;;;;1.07;0.83;;;;;;;4.73;100.00;99328.44;6189778;23;20592;-78
2023/02/01 02:47:27;;;;;;;0.80;0.80;;;;;;;4.72;100.00;99350.66;6162061;23;20217;-79
2023/02/01 02:55:45;;;;;;;1.00;0.97;;;;;;;4.76;100.00;99343.13;6142615;23;20218;-81
2023/02/01 03:06:32;;;;;;;1.20;1.10;;;;;;;4.77;100.00;99327.03;6170335;23;20205;-79
2023/02/01 03:09:02;;;;;;;1.20;1.10;;;;;;;4.82;100.00;99337.91;6191530;23;20209;-79
2023/02/01 03:12:55;;;;;;;1.27;1.17;;;;;;;4.79;100.00;99332.97;6191250;23;20588;-79
2023/02/01 03:14:16;;;;;;;1.67;1.20;;;;;;;4.70;100.00;99328.00;6190723;23;20209;-79
2023/02/01 03:16:51;;;;;;;2.37;1.30;;;;;;;4.76;100.00;99329.88;6191833;23;20201;-79
2023/02/01 03:19:22;;;;;;;1.87;1.60;;;;;;;4.65;100.00;99333.03;6191459;23;20705;-79
2023/02/01 03:22:04;;;;;;;1.63;1.43;;;;;;;4.78;100.00;99318.06;6191205;23;20216;-79
2023/02/01 03:24:52;;;;;;;2.03;1.50;;;;;;;4.64;100.00;99336.69;6190940;23;20251;-79
2023/02/01 03:27:24;;;;;;;4.20;1.53;;;;;;;4.77;100.00;99337.66;6166632;23;20216;-79
2023/02/01 03:29:58;;;;;;;1.60;1.50;;;;;;;4.82;100.00;99339.72;6166266;23;20531;-79
2023/02/01 03:32:26;;;;;;;1.97;1.67;;;;;;;4.84;100.00;99337.72;6191278;23;20212;-79
2023/02/01 03:34:53;;;;;;;1.87;1.63;;;;;;;4.81;100.00;99338.91;6217149;23;20209;-79
2023/02/01 03:37:26;;;;;;;1.90;1.47;;;;;;;4.83;100.00;99336.91;6217383;23;20217;-79
2023/02/01 03:40:19;;;;;;;1.90;1.50;;;;;;;4.89;100.00;99359.22;6191498;23;20205;-80
2023/02/01 03:42:49;;;;;;;2.87;1.70;;;;;;;4.96;100.00;99349.47;6161206;23;20220;-79
2023/02/01 03:45:23;;;;;;;2.13;1.60;;;;;;;4.90;100.00;99363.50;6166676;23;20551;-79
2023/02/01 03:47:53;;;;;;;2.37;1.40;;;;;;;4.87;100.00;99340.81;6164064;23;20220;-80
2023/02/01 03:50:23;;;;;;;2.83;1.67;;;;;;;4.92;100.00;99371.28;6189105;23;20271;-79
2023/02/01 03:53:05;;;;;;;3.40;1.70;;;;;;;4.95;100.00;99366.41;6191071;23;20224;-79
2023/02/01 03:55:32;;;;;;;1.90;1.70;;;;;;;5.00;100.00;99374.63;6189253;23;20209;-79
2023/02/01 03:58:18;;;;;;;1.77;1.67;;;;;;;4.93;100.00;99349.84;6215364;23;20205;-79
2023/02/01 04:00:49;;;;;;;1.77;1.67;;;;;;;4.99;100.00;99358.91;6216836;23;20596;-79
2023/02/01 04:03:16;;;;;;;2.20;1.97;;;;;;;4.90;100.00;99354.72;6191596;23;20216;-79
2023/02/01 04:05:44;;;;;;;2.00;1.80;;;;;;;4.99;100.00;99345.63;6190598;23;20209;-79
2023/02/01 04:08:11;;;;;;;2.83;2.07;;;;;;;4.91;100.00;99357.19;6190090;23;20209;-79
2023/02/01 04:10:37;;;;;;;2.73;2.10;;;;;;;4.87;100.00;99353.25;6217322;23;20215;-79
2023/02/01 04:13:04;;;;;;;2.73;2.00;;;;;;;4.90;100.00;99352.88;6217232;23;20209;-79
2023/02/01 04:15:31;;;;;;;3.70;2.37;;;;;;;5.01;100.00;99336.44;6191463;23;20283;-79
2023/02/01 04:17:57;;;;;;;2.73;2.20;;;;;;;5.03;100.00;99342.41;6216427;23;20205;-79
2023/02/01 04:20:24;;;;;;;1.70;1.60;;;;;;;4.94;100.00;99353.34;6201532;23;20272;-80
2023/02/01 04:22:51;;;;;;;2.20;1.87;;;;;;;5.01;100.00;99355.03;6216018;23;20264;-79
2023/02/01 04:25:18;;;;;;;2.43;2.00;;;;;;;5.14;100.00;99354.31;6190795;23;20204;-79
2023/02/01 04:27:45;;;;;;;2.70;2.07;;;;;;;5.10;100.00;99347.75;6191050;23;20212;-80
2023/02/01 04:30:12;;;;;;;2.63;2.00;;;;;;;5.17;100.00;99344.16;6190268;23;20208;-78
2023/02/01 04:32:39;;;;;;;1.70;1.60;;;;;;;5.12;100.00;99346.56;6190655;23;20543;-79
2023/02/01 04:35:07;;;;;;;3.00;2.07;;;;;;;5.15;100.00;99342.69;6216565;23;20569;-78
2023/02/01 04:37:34;;;;;;;2.30;1.80;;;;;;;5.12;100.00;99329.81;6191408;23;20182;-79
2023/02/01 04:40:03;;;;;;;2.33;2.00;;;;;;;5.08;100.00;99318.75;6217635;23;20217;-78
2023/02/01 04:42:30;;;;;;;2.33;2.03;;;;;;;5.12;100.00;99314.69;6218987;23;20207;-80
2023/02/01 04:44:56;;;;;;;1.90;1.80;;;;;;;5.18;100.00;99319.22;6218355;23;20292;-79
2023/02/01 04:47:23;;;;;;;2.03;1.83;;;;;;;5.19;100.00;99307.59;6219428;23;20650;-79
2023/02/01 04:49:49;;;;;;;1.77;1.67;;;;;;;5.25;100.00;99306.81;6219015;23;20225;-79
2023/02/01 04:52:16;;;;;;;2.20;1.70;;;;;;;5.25;100.00;99306.00;6216153;23;20209;-79
2023/02/01 04:54:43;;;;;;;1.50;1.40;;;;;;;5.18;100.00;99319.22;6218649;23;20201;-79
2023/02/01 04:57:09;;;;;;;1.80;1.70;;;;;;;5.34;100.00;99299.53;6192023;23;20897;-79
2023/02/01 04:59:36;;;;;;;1.70;1.60;;;;;;;5.38;100.00;99307.91;6193413;23;20284;-79
2023/02/01 05:02:02;;;;;;;1.50;1.40;;;;;;;5.40;100.00;99284.66;6219680;23;20229;-79
2023/02/01 05:04:29;;;;;;;1.50;1.40;;;;;;;5.29;100.00;99291.31;6219774;23;20240;-79
2023/02/01 05:06:56;;;;;;;2.17;1.47;;;;;;;5.41;100.00;99305.72;6219654;23;20210;-79
2023/02/01 05:09:22;;;;;;;1.40;1.30;;;;;;;5.20;100.00;99287.97;6218998;23;20255;-79
2023/02/01 05:14:34;;;;;;;1.50;1.40;;;;;;;5.40;100.00;99314.69;6218989;23;20681;-80
2023/02/01 05:17:01;;;;;;;1.37;1.27;;;;;;;5.37;100.00;99315.06;6219807;23;20209;-79
2023/02/01 05:19:27;;;;;;;1.80;1.63;;;;;;;5.26;100.00;99297.84;6219946;23;20574;-79
2023/02/01 05:21:54;;;;;;;1.83;1.50;;;;;;;5.25;100.00;99293.53;6219487;23;20213;-79
2023/02/01 05:24:21;;;;;;;2.07;1.83;;;;;;;5.39;100.00;99298.94;6219429;23;20283;-79
2023/02/01 05:26:48;;;;;;;2.10;1.90;;;;;;;5.41;100.00;99297.75;6223337;23;20205;-80
2023/02/01 05:29:16;;;;;;;2.57;1.93;;;;;;;5.37;100.00;99299.13;6197779;23;20280;-80
2023/02/01 05:31:47;;;;;;;2.70;1.77;;;;;;;5.49;100.00;99318.84;6195514;23;20205;-80
2023/02/01 05:34:15;;;;;;;2.70;1.90;;;;;;;5.42;100.00;99291.41;6222109;23;20189;-79
2023/02/01 05:36:41;;;;;;;2.80;1.63;;;;;;;5.48;100.00;99303.91;6195048;23;20290;-79
2023/02/01 05:39:08;;;;;;;1.83;1.63;;;;;;;5.50;100.00;99285.13;6194774;23;20603;-79
2023/02/01 05:41:35;;;;;;;1.80;1.60;;;;;;;5.42;100.00;99293.22;6221912;23;20717;-80
2023/02/01 05:44:02;;;;;;;1.70;1.60;;;;;;;5.28;100.00;99290.50;6221095;23;20527;-79
2023/02/01 05:46:29;;;;;;;1.97;1.70;;;;;;;5.40;100.00;99289.97;6195324;23;20288;-80
2023/02/01 05:48:55;;;;;;;2.00;1.67;;;;;;;5.31;100.00;99308.72;6194610;23;20210;-79
2023/02/01 05:51:22;;;;;;;1.97;1.70;;;;;;;5.35;100.00;99293.19;6221154;23;20206;-79
2023/02/01 05:53:49;;;;;;;1.80;1.70;;;;;;;5.45;100.00;99287.53;6216060;23;20209;-78
2023/02/01 05:56:15;;;;;;;1.70;1.60;;;;;;;5.40;100.00;99305.91;6213023;23;20543;-78
2023/02/01 05:58:42;;;;;;;2.17;1.67;;;;;;;5.42;100.00;99303.84;6215273;23;20557;-78
2023/02/01 06:01:08;;;;;;;2.27;2.00;;;;;;;5.43;100.00;99285.06;6215236;23;20209;-78
2023/02/01 06:03:35;;;;;;;2.10;1.97;;;;;;;5.38;100.00;99276.88;6215140;23;20209;-79
2023/02/01 06:06:02;;;;;;;2.67;2.47;;;;;;;5.21;100.00;99292.28;6214516;23;20331;-77
2023/02/01 06:08:29;;;;;;;2.40;1.93;;;;;;;5.32;100.00;99281.09;6215165;23;20201;-78
2023/02/01 06:11:04;;;;;;;3.10;2.00;;;;;;;5.26;100.00;99289.06;6177856;23;20212;-81
2023/02/01 06:13:31;;;;;;;2.00;1.80;;;;;;;5.32;100.00;99294.41;6202580;23;20260;-81
2023/02/01 06:16:02;;;;;;;1.90;1.77;;;;;;;5.26;100.00;99284.56;6202224;23;20209;-81
2023/02/01 06:18:30;;;;;;;2.43;2.20;;;;;;;5.33;100.00;99296.03;6177952;23;20205;-80
2023/02/01 06:20:59;;;;;;;2.37;2.00;;;;;;;5.32;100.00;99294.41;6202983;23;20658;-81
2023/02/01 06:23:27;;;;;;;2.37;1.80;;;;;;;5.32;100.00;99281.09;6203671;23;20210;-81
2023/02/01 06:26:00;;;;;;;2.23;1.77;;;;;;;5.38;100.00;99284.00;6180845;23;20205;-82
2023/02/01 06:28:29;;;;;;;2.00;1.90;;;;;;;5.24;100.00;99265.34;6204055;23;20227;-80
2023/02/01 06:30:57;;;;;;;2.60;2.30;;;;;;;5.25;100.00;99290.06;6167611;23;20206;-81
2023/02/01 06:33:25;;;;;;;2.37;2.00;;;;;;;5.42;100.00;99295.88;6203466;23;20205;-81
2023/02/01 06:35:59;;;;;;;2.67;2.00;;;;;;;5.52;100.00;99297.19;6204817;23;20209;-81
2023/02/01 06:38:27;;;;;;;2.50;2.10;;;;;;;5.65;100.00;99320.34;6141881;23;20208;-81
2023/02/01 06:40:55;;;;;;;3.33;2.00;;;;;;;5.69;100.00;99317.09;6205393;23;20265;-80
2023/02/01 06:43:24;;;;;;;3.50;2.20;;;;;;;5.69;100.00;99309.13;6205772;23;20257;-80
2023/02/01 06:45:51;;;;;;;1.77;1.63;;;;;;;5.91;100.00;99311.75;6179821;23;20209;-81
2023/02/01 06:48:18;;;;;;;2.93;2.13;;;;;;;5.95;100.00;99316.47;6203576;23;20275;-81
2023/02/01 06:50:45;;;;;;;2.20;1.90;;;;;;;6.03;100.00;99326.94;6228951;23;20202;-80
2023/02/01 06:53:12;;;;;;;2.07;1.87;;;;;;;6.24;100.00;99318.03;6153962;23;20207;-80
2023/02/01 06:55:39;;;;;;;2.10;1.90;;;;;;;6.28;100.00;99316.63;6166561;23;20233;-81
2023/02/01 06:58:06;;;;;;;2.07;1.83;;;;;;;6.47;100.00;99331.81;6166236;23;20242;-80
2023/02/01 07:00:33;;;;;;;1.97;1.73;;;;;;;6.44;100.00;99320.78;6142452;23;20218;-81
2023/02/01 07:03:00;;;;;;;2.33;2.10;;;;;;;6.41;100.00;99327.28;6164890;23;20206;-80
2023/02/01 07:05:27;;;;;;;2.70;2.50;;;;;;;6.77;100.00;99340.28;6161072;23;20210;-80
2023/02/01 07:07:54;;;;;;;2.50;2.10;;;;;;;6.54;100.00;99315.84;6167867;23;20261;-80
2023/02/01 07:10:21;;;;;;;2.57;1.90;;;;;;;6.53;100.00;99323.03;6115742;23;20217;-80
2023/02/01 07:12:48;;;;;;;2.60;2.20;;;;;;;6.44;100.00;99312.78;6139118;23;20215;-80
2023/02/01 07:15:15;;;;;;;2.43;1.83;;;;;;;6.37;100.00;99294.13;6163671;23;20214;-80
2023/02/01 07:17:42;;;;;;;2.07;1.87;;;;;;;6.45;100.00;99317.06;6165253;23;20207;-80
2023/02/01 07:20:09;;;;;;;2.03;1.73;;;;;;;6.50;100.00;99293.34;6163994;23;20217;-80
2023/02/01 07:22:36;;;;;;;2.17;1.80;;;;;;;6.54;100.00;99294.56;6140317;23;20231;-81
2023/02/01 07:25:03;;;;;;;3.97;2.10;;;;;;;6.46;100.00;99306.22;6135437;23;20219;-80
2023/02/01 07:27:34;;;;;;;1.93;1.77;;;;;;;6.59;100.00;99303.59;6163266;23;20217;-81
2023/02/01 07:30:02;;;;;;;1.90;1.63;;;;;;;6.71;100.00;99319.81;6165522;23;20236;-80
2023/02/01 07:32:29;;;;;;;1.87;1.77;;;;;;;6.59;100.00;99311.56;6135655;23;20195;-80
2023/02/01 07:34:57;;;;;;;2.00;1.70;;;;;;;6.59;100.00;99326.72;6132903;23;20221;-81
2023/02/01 07:37:24;;;;;;;2.00;1.70;;;;;;;6.78;100.00;99317.97;6140408;23;20257;-81
2023/02/01 07:39:53;;;;;;;2.17;1.60;;;;;;;6.81;100.00;99335.38;6164435;23;20215;-80
2023/02/01 07:42:20;;;;;;;2.30;1.90;;;;;;;6.87;100.00;99326.56;6164744;23;20214;-80
2023/02/01 07:44:47;;;;;;;2.57;1.90;;;;;;;6.70;100.00;99312.00;6164402;23;20207;-81
2023/02/01 07:47:13;;;;;;;2.03;1.80;;;;;;;6.90;100.00;99327.00;6167477;23;20210;-80
2023/02/01 07:49:40;;;;;;;2.13;1.93;;;;;;;6.89;100.00;99333.34;6176819;23;20259;-81
2023/02/01 07:52:07;;;;;;;2.10;1.90;;;;;;;6.90;100.00;99320.84;6197453;23;20248;-80
2023/02/01 07:54:36;;;;;;;2.53;2.10;;;;;;;6.84;100.00;99322.50;6227151;23;20201;-81
2023/02/01 07:57:02;;;;;;;2.30;2.10;;;;;;;6.93;100.00;99323.94;6176784;23;20260;-80
2023/02/01 07:59:29;;;;;;;4.67;2.43;;;;;;;6.94;100.00;99298.13;6200095;23;20608;-81
2023/02/01 08:01:56;;;;;;;2.27;1.90;;;;;;;6.86;100.00;99320.41;6201434;23;20201;-81
2023/02/01 08:04:24;;;;;;;2.33;2.13;;;;;;;7.14;100.00;99317.56;6200131;23;20700;-80
2023/02/01 08:06:51;;;;;;;2.70;2.00;;;;;;;7.17;100.00;99308.38;6200863;23;20212;-80
2023/02/01 08:09:18;;;;;;;3.17;2.27;;;;;;;7.28;100.00;99297.09;6228863;23;20212;-81
2023/02/01 08:11:45;;;;;;;2.70;1.77;;;;;;;7.17;100.00;99285.22;6202386;23;20209;-81
2023/02/01 08:14:12;;;;;;;2.97;2.27;;;;;;;7.16;100.00;99282.75;6152225;23;20205;-81
2023/02/01 08:16:39;;;;;;;2.40;1.87;;;;;;;7.34;100.00;99293.59;6202269;23;20201;-81
2023/02/01 08:19:06;;;;;;;2.17;1.63;;;;;;;7.39;100.00;99283.13;6178300;23;20261;-81
2023/02/01 08:21:39;;;;;;;2.30;1.77;;;;;;;7.42;100.00;99283.53;6229521;23;20209;-81
2023/02/01 08:24:08;;;;;;;1.93;1.80;;;;;;;7.49;100.00;99279.03;6202690;23;20216;-81
2023/02/01 08:26:35;;;;;;;2.40;1.90;;;;;;;7.56;100.00;99262.19;6228706;23;20583;-81
2023/02/01 08:29:04;;;;;;;2.40;1.93;;;;;;;7.48;100.00;99272.03;6203455;23;20205;-81
2023/02/01 08:31:31;;;;;;;2.90;1.83;;;;;;;7.37;100.00;99251.34;6177654;23;20205;-80
2023/02/01 08:34:00;;;;;;;3.47;2.20;;;;;;;7.44;100.00;99259.34;6201412;23;20225;-80
2023/02/01 08:36:29;;;;;;;2.37;1.97;;;;;;;7.57;100.00;99261.97;6177466;23;20205;-81
2023/02/01 08:38:56;;;;;;;2.93;1.90;;;;;;;7.41;100.00;99239.25;6152920;23;20670;-80
2023/02/01 08:41:25;;;;;;;2.20;2.00;;;;;;;7.61;100.00;99246.38;6202117;23;20284;-80
2023/02/01 08:43:54;;;;;;;2.43;1.90;;;;;;;7.66;100.00;99241.22;6202654;23;20233;-81
2023/02/01 08:46:22;;;;;;;2.57;2.37;;;;;;;7.70;100.00;99234.47;6202219;23;20693;-80
2023/02/01 08:48:49;;;;;;;2.80;2.20;;;;;;;7.74;100.00;99255.16;6201463;23;20254;-81
2023/02/01 08:51:18;;;;;;;1.80;1.70;;;;;;;7.71;100.00;99260.91;6227752;23;20686;-80
2023/02/01 08:53:46;;;;;;;3.43;2.27;;;;;;;7.73;100.00;99266.84;6183459;23;20686;-81
2023/02/01 08:56:15;;;;;;;3.23;2.87;;;;;;;7.87;100.00;99260.44;6175013;23;20730;-81
2023/02/01 08:58:42;;;;;;;3.87;2.90;;;;;;;7.88;100.00;99261.28;6177381;23;20212;-81
2023/02/01 09:01:12;;;;;;;3.53;3.10;;;;;;;7.97;100.00;99274.16;6176630;23;20263;-81
2023/02/01 09:03:39;;;;;;;2.90;2.60;;;;;;;8.02;100.00;99270.03;6178358;23;20198;-81
2023/02/01 09:06:08;;;;;;;2.10;1.90;;;;;;;8.10;100.00;99281.28;6176768;23;20213;-80
2023/02/01 09:08:37;;;;;;;1.70;1.60;;;;;;;8.23;100.00;99278.56;6176944;23;20205;-80
2023/02/01 09:11:07;;;;;;;1.90;1.40;;;;;;;8.23;100.00;99288.41;6152396;23;20209;-82
2023/02/01 09:13:35;;;;;;;3.37;1.40;;;;;;;8.40;100.00;99302.91;6203552;23;20233;-81
2023/02/01 09:16:03;;;;;;;1.50;1.40;;;;;;;8.73;100.00;99302.72;6178141;23;20206;-80
2023/02/01 09:18:30;;;;;;;2.67;1.53;;;;;;;8.54;100.00;99314.38;6203510;23;20209;-80
2023/02/01 09:20:57;;;;;;;1.57;1.43;;;;;;;8.69;100.00;99329.06;6229622;23;20205;-80
2023/02/01 09:23:25;;;;;;;1.90;1.50;;;;;;;8.82;100.00;99326.31;6203646;23;20232;-80
2023/02/01 09:25:52;;;;;;;2.00;1.67;;;;;;;9.06;100.00;99331.91;6206415;23;20294;-80
2023/02/01 09:28:19;;;;;;;1.50;1.40;;;;;;;9.20;100.00;99339.59;6206776;23;20216;-80
2023/02/01 09:30:46;;;;;;;1.83;1.50;;;;;;;9.43;100.00;99332.81;6205985;23;20217;-80
2023/02/01 09:33:14;;;;;;;2.67;1.40;;;;;;;9.66;99.63;99333.03;6206515;23;20213;-81
2023/02/01 09:35:41;;;;;;;1.80;1.67;;;;;;;9.41;98.33;99346.44;6206058;23;20228;-80
2023/02/01 09:38:08;;;;;;;1.60;1.43;;;;;;;9.47;98.27;99342.06;6206118;23;20209;-81
2023/02/01 09:40:35;;;;;;;2.30;1.40;;;;;;;9.18;98.23;99346.22;6183717;23;20257;-80
2023/02/01 09:43:44;;;;;;;1.37;1.27;;;;;;;9.31;99.19;99324.72;6209336;23;20238;-81
2023/02/01 09:46:34;;;;;;;1.93;1.50;;;;;;;9.28;98.05;99333.19;6111806;23;20236;-81
2023/02/01 09:49:04;;;;;;;2.40;1.50;;;;;;;9.42;98.72;99334.72;6113604;23;20238;-80
2023/02/01 09:51:37;;;;;;;1.17;1.07;;;;;;;9.67;97.12;99327.47;6180516;23;20213;-80
2023/02/01 09:54:05;;;;;;;1.57;1.10;;;;;;;9.55;97.21;99331.91;6180329;23;20600;-80
2023/02/01 09:56:40;;;;;;;1.53;1.43;;;;;;;9.51;96.80;99320.03;6184729;23;20201;-80
2023/02/01 09:59:26;;;;;;;1.17;1.07;;;;;;;9.77;97.00;99326.13;6208014;23;20213;-81
2023/02/01 10:01:54;;;;;;;1.17;1.00;;;;;;;9.45;98.04;99330.75;6235154;23;20201;-81
2023/02/01 10:04:21;;;;;;;1.10;1.00;;;;;;;9.36;100.00;99332.91;6158217;23;20212;-80
2023/02/01 10:06:56;;;;;;;1.20;1.10;;;;;;;9.21;100.00;99327.06;6170525;23;20206;-81
2023/02/01 10:09:31;;;;;;;1.23;0.90;;;;;;;9.02;100.00;99328.03;6207788;23;20209;-81
2023/02/01 10:12:04;;;;;;;1.33;0.93;;;;;;;8.98;100.00;99334.84;6167005;23;20253;-80
2023/02/01 10:15:13;;;;;;;2.03;1.10;;;;;;;8.60;100.00;99318.84;6204563;23;20208;-82
2023/02/01 10:18:03;;;;;;;0.80;0.80;;;;;;;8.47;100.00;99321.59;6230454;23;20217;-80
2023/02/01 10:20:39;;;;;;;1.17;0.90;;;;;;;8.25;100.00;99313.88;6179184;23;20281;-80
2023/02/01 10:23:31;;;;;;;0.80;0.70;;;;;;;7.95;100.00;99296.72;6178916;23;20208;-81
2023/02/01 10:26:17;;;;;;;1.87;0.93;;;;;;;7.93;100.00;99314.81;6230360;23;20225;-80
2023/02/01 10:28:48;;;;;;;0.80;0.80;;;;;;;7.79;100.00;99313.22;6180654;23;20197;-81
2023/02/01 10:31:16;;;;;;;1.13;0.90;;;;;;;7.80;100.00;99306.81;6179322;23;20520;-82
2023/02/01 10:33:51;;;;;;;1.00;0.87;;;;;;;7.94;100.00;99303.91;6155390;23;20209;-81
2023/02/01 10:36:22;;;;;;;2.13;1.00;;;;;;;8.11;100.00;99303.47;6178127;23;20216;-82
2023/02/01 10:38:50;;;;;;;0.67;0.67;;;;;;;8.34;100.00;99291.28;6204010;23;20207;-81
2023/02/01 10:41:23;;;;;;;2.90;1.00;;;;;;;8.42;100.00;99286.69;6231393;23;20216;-82
2023/02/01 10:43:53;;;;;;;1.50;0.90;;;;;;;8.50;100.00;99289.09;6206638;23;20193;-82
2023/02/01 10:46:26;;;;;;;1.00;0.87;;;;;;;8.77;100.00;99279.94;6120283;23;20284;-80
2023/02/01 10:48:56;;;;;;;1.20;0.90;;;;;;;9.02;100.00;99275.41;6209798;23;20244;-80
2023/02/01 10:51:28;;;;;;;1.57;1.00;;;;;;;9.13;100.00;99289.91;6164472;23;20186;-81
2023/02/01 10:54:03;;;;;;;1.63;0.90;;;;;;;9.20;100.00;99282.66;6184776;23;20229;-81
2023/02/01 10:56:31;;;;;;;2.03;1.20;;;;;;;9.02;100.00;99302.13;6236682;23;20201;-80
2023/02/01 10:59:04;;;;;;;1.63;1.10;;;;;;;8.76;100.00;99280.94;6187327;23;20176;-81
2023/02/01 11:01:37;;;;;;;0.77;0.77;;;;;;;8.71;100.00;99278.94;6199468;23;20280;-81
2023/02/01 11:04:12;;;;;;;1.37;0.80;;;;;;;8.94;100.00;99285.53;6195280;23;20727;-79
2023/02/01 11:06:44;;;;;;;1.10;1.00;;;;;;;8.83;100.00;99295.88;6222931;23;20205;-80
2023/02/01 11:09:24;;;;;;;3.07;0.80;;;;;;;9.00;100.00;99285.50;6192188;23;20597;-79
2023/02/01 11:11:51;;;;;;;1.47;1.00;;;;;;;8.99;100.00;99294.53;6191183;23;20201;-80
2023/02/01 11:14:38;;;;;;;0.80;0.80;;;;;;;9.13;100.00;99266.69;6194457;23;20585;-80
2023/02/01 11:17:14;;;;;;;0.90;0.80;;;;;;;8.96;100.00;99272.78;6220715;23;20209;-80
2023/02/01 11:19:45;;;;;;;1.23;0.83;;;;;;;9.06;100.00;99278.44;6195506;23;20207;-80
2023/02/01 11:22:13;;;;;;;1.10;0.97;;;;;;;9.04;100.00;99278.69;6195160;23;20256;-79
2023/02/01 11:24:40;;;;;;;1.57;1.00;;;;;;;9.19;100.00;99279.16;6195893;23;20269;-80
2023/02/01 11:27:15;;;;;;;1.63;1.00;;;;;;;8.77;100.00;99264.69;6195510;23;20693;-79
2023/02/01 11:29:58;;;;;;;1.30;0.90;;;;;;;8.87;100.00;99252.69;6197740;23;20260;-80
2023/02/01 11:32:26;;;;;;;1.27;1.00;;;;;;;8.52;100.00;99255.84;6222311;23;20205;-79
2023/02/01 11:35:00;;;;;;;1.20;1.00;;;;;;;8.33;100.00;99262.94;6195603;23;20220;-80
2023/02/01 11:37:30;;;;;;;1.03;0.93;;;;;;;8.29;100.00;99259.06;6197108;23;20209;-80
2023/02/01 11:39:58;;;;;;;2.20;1.27;;;;;;;8.32;100.00;99255.94;6170907;23;20209;-80
2023/02/01 11:42:26;;;;;;;1.30;1.20;;;;;;;7.97;100.00;99279.50;6194222;23;20208;-80
2023/02/01 11:45:26;;;;;;;2.20;1.07;;;;;;;7.80;100.00;99264.16;6169863;23;20232;-81
2023/02/01 11:47:54;;;;;;;1.50;1.30;;;;;;;7.69;100.00;99256.81;6195254;23;20233;-80
2023/02/01 11:50:35;;;;;;;1.30;0.90;;;;;;;8.00;100.00;99264.91;6193905;23;20741;-81
2023/02/01 11:53:07;;;;;;;1.90;1.00;;;;;;;8.01;100.00;99269.22;6220429;23;20650;-80
2023/02/01 11:55:56;;;;;;;0.97;0.90;;;;;;;7.76;100.00;99281.59;6193344;23;20546;-79
2023/02/01 11:58:53;;;;;;;2.13;1.20;;;;;;;7.60;100.00;99280.22;6219672;23;20204;-81
2023/02/01 12:01:48;;;;;;;1.93;1.20;;;;;;;7.52;100.00;99281.25;6144773;23;20212;-81
2023/02/01 12:04:41;;;;;;;1.43;1.00;;;;;;;7.41;100.00;99292.56;6194105;23;20249;-80
2023/02/01 12:07:38;;;;;;;1.07;0.80;;;;;;;7.24;100.00;99311.84;6171510;23;20216;-79
2023/02/01 12:10:31;;;;;;;1.30;1.20;;;;;;;6.94;100.00;99298.13;6218700;23;20256;-80
2023/02/01 12:13:16;;;;;;;0.90;0.83;;;;;;;6.93;100.00;99302.63;6200655;23;20221;-81
2023/02/01 12:16:01;;;;;;;1.27;0.93;;;;;;;6.81;100.00;99290.13;6230467;23;20205;-81